Time;durP1;ratioP1;P1;durP2;ratioP2;P2;SDS_P1;SDS_P2;PMS_P1;PMS_P2;Temp;Humidity;BMP_temperature;BMP_pressure;BME280_temperature;BME280_humidity;BME280_pressure;Samples;Min_cycle;Max_cycle;Signal;HPM_P1;HPM_P2
2024/03/27 00:04:15;;;;;;;5.3;2.8;;;;;;;6.79;59.89;97181.666666667;;;;
2024/03/27 00:15:15;;;;;;;5.3;2.8;;;;;;;6.98;58.63;97178.333333333;;;;
2024/03/27 00:25:15;;;;;;;5.7;3;;;;;;;7.18;57.57;97166.666666667;;;;
2024/03/27 00:36:15;;;;;;;5.7;3;;;;;;;7.35;57.65;97161.666666667;;;;
2024/03/27 00:46:15;;;;;;;5.7;3;;;;;;;7.4;57.28;97156.666666667;;;;
2024/03/27 00:57:15;;;;;;;6.9;3.3;;;;;;;7.41;57.41;97146.666666667;;;;
2024/03/27 01:07:15;;;;;;;6.9;3.3;;;;;;;7.23;58.43;97133.333333333;;;;
2024/03/27 01:18:16;;;;;;;6.9;3.3;;;;;;;7.18;58.25;97113.333333333;;;;
2024/03/27 01:28:15;;;;;;;8.7;3.5;;;;;;;7.1;58.52;97101.666666667;;;;
2024/03/27 01:39:15;;;;;;;8.7;3.5;;;;;;;7.05;57.97;97080;;;;
2024/03/27 01:50:15;;;;;;;4.1;2.1;;;;;;;7.3;55.01;97071.666666667;;;;
2024/03/27 02:00:15;;;;;;;4.1;2.1;;;;;;;7.54;55.1;97051.666666667;;;;
2024/03/27 02:10:15;;;;;;;4.1;2.1;;;;;;;7.53;54.96;97035;;;;
2024/03/27 02:21:23;;;;;;;5.1;2;;;;;;;7.37;55.27;97030;;;;
2024/03/27 02:31:15;;;;;;;5.1;2;;;;;;;7.34;55.88;97021.666666667;;;;
2024/03/27 02:41:15;;;;;;;5.1;2;;;;;;;7.41;54.9;96993.333333333;;;;
2024/03/27 02:52:15;;;;;;;5;2.4;;;;;;;7.49;54.39;96991.666666667;;;;
2024/03/27 03:02:15;;;;;;;5;2.4;;;;;;;7.3;55.18;96991.666666667;;;;
2024/03/27 03:12:15;;;;;;;5;2.4;;;;;;;7.1;54.89;96965;;;;
2024/03/27 03:22:16;;;;;;;6.1;2.2;;;;;;;6.79;56.96;96938.333333333;;;;
2024/03/27 03:32:15;;;;;;;6.1;2.2;;;;;;;6.69;55.82;96936.666666667;;;;
2024/03/27 03:43:15;;;;;;;6.1;2.2;;;;;;;6.37;57.26;96925;;;;
2024/03/27 03:54:15;;;;;;;4.6;2.7;;;;;;;6.06;57.82;96913.333333333;;;;
2024/03/27 04:05:15;;;;;;;4.6;2.7;;;;;;;5.89;59.04;96905;;;;
2024/03/27 04:15:15;;;;;;;4.6;2.7;;;;;;;5.77;59.51;96911.666666667;;;;
2024/03/27 04:26:15;;;;;;;5.2;2.2;;;;;;;5.81;59.98;96906.666666667;;;;
2024/03/27 04:36:16;;;;;;;5.2;2.2;;;;;;;5.65;60.46;96896.666666667;;;;
2024/03/27 04:46:15;;;;;;;5.2;2.2;;;;;;;5.5;60.88;96878.333333333;;;;
2024/03/27 04:57:15;;;;;;;4.6;1.9;;;;;;;5.61;61.54;96876.666666667;;;;
2024/03/27 05:08:16;;;;;;;4.6;1.9;;;;;;;5.74;60.79;96868.333333333;;;;
2024/03/27 05:18:15;;;;;;;4.6;1.9;;;;;;;5.46;64.01;96858.333333333;;;;
2024/03/27 05:29:15;;;;;;;4.6;1.8;;;;;;;5.74;61.51;96850;;;;
2024/03/27 05:39:15;;;;;;;4.6;1.8;;;;;;;6.39;59.14;96856.666666667;;;;
2024/03/27 05:50:15;;;;;;;2.9;1.8;;;;;;;7.25;57.42;96850;;;;
2024/03/27 06:00:16;;;;;;;2.9;1.8;;;;;;;7.96;57.19;96850;;;;
2024/03/27 06:11:17;;;;;;;2.9;1.8;;;;;;;8.85;56.76;96853.333333333;;;;
2024/03/27 06:22:15;;;;;;;6.2;2.4;;;;;;;9.67;55.6;96851.666666667;;;;
2024/03/27 06:32:15;;;;;;;6.2;2.4;;;;;;;10.08;56.61;96858.333333333;;;;
2024/03/27 06:42:15;;;;;;;6.2;2.4;;;;;;;10.48;57.57;96868.333333333;;;;
2024/03/27 06:53:15;;;;;;;5.6;2.2;;;;;;;11.02;57.2;96855;;;;
2024/03/27 07:04:15;;;;;;;5.6;2.2;;;;;;;11.72;57.17;96860;;;;
2024/03/27 07:15:15;;;;;;;5.6;2.2;;;;;;;12.45;56.04;96850;;;;
2024/03/27 07:26:16;;;;;;;4.5;2.4;;;;;;;12.86;55.54;96841.666666667;;;;
2024/03/27 07:36:15;;;;;;;4.5;2.4;;;;;;;13.3;56.37;96845;;;;
2024/03/27 07:46:15;;;;;;;4.5;2.4;;;;;;;13.47;56.01;96845;;;;
2024/03/27 07:57:15;;;;;;;7.8;3.5;;;;;;;14.17;55.32;96841.666666667;;;;
2024/03/27 08:08:15;;;;;;;7.8;3.5;;;;;;;14.38;56.43;96846.666666667;;;;
2024/03/27 08:19:15;;;;;;;7.3;3.3;;;;;;;14.83;53.46;96836.666666667;;;;
2024/03/27 08:29:15;;;;;;;7.3;3.3;;;;;;;15.21;53.5;96835;;;;
2024/03/27 08:40:15;;;;;;;7.3;3.3;;;;;;;16.02;55.44;96823.333333333;;;;
2024/03/27 08:50:15;;;;;;;4.3;2.1;;;;;;;16.2;54.95;96810;;;;
2024/03/27 09:00:17;;;;;;;4.3;2.1;;;;;;;16.33;54.3;96810;;;;
2024/03/27 09:11:15;;;;;;;4.3;2.1;;;;;;;16.54;54.88;96811.666666667;;;;
2024/03/27 09:22:15;;;;;;;3.2;1.5;;;;;;;16.94;52.35;96810;;;;
2024/03/27 09:32:15;;;;;;;3.2;1.5;;;;;;;17.05;53.77;96821.666666667;;;;
2024/03/27 09:43:15;;;;;;;3.2;1.5;;;;;;;17.3;53.78;96803.333333333;;;;
2024/03/27 09:53:15;;;;;;;4.3;2;;;;;;;17.66;53.04;96796.666666667;;;;
2024/03/27 10:04:15;;;;;;;4.3;2;;;;;;;17.79;52.8;96803.333333333;;;;
2024/03/27 10:15:15;;;;;;;4.3;2;;;;;;;17.89;49.68;96796.666666667;;;;
2024/03/27 10:26:15;;;;;;;3.3;1.3;;;;;;;18.27;53.5;96806.666666667;;;;
2024/03/27 10:36:15;;;;;;;3.3;1.3;;;;;;;18.28;51.7;96800;;;;
2024/03/27 10:46:16;;;;;;;3.3;1.3;;;;;;;18.55;51.11;96785;;;;
2024/03/27 10:57:18;;;;;;;2.8;1.4;;;;;;;18.45;49.88;96793.333333333;;;;
2024/03/27 11:07:15;;;;;;;2.8;1.4;;;;;;;18.76;49.72;96781.666666667;;;;
2024/03/27 11:17:15;;;;;;;2.8;1.4;;;;;;;18.85;51.38;96790;;;;
2024/03/27 11:28:15;;;;;;;4.4;1.9;;;;;;;19.14;48.17;96781.666666667;;;;
2024/03/27 11:38:19;;;;;;;4.4;1.9;;;;;;;19.11;48.25;96781.666666667;;;;
2024/03/27 11:48:16;;;;;;;4.4;1.9;;;;;;;19.38;50.03;96768.333333333;;;;
2024/03/27 11:59:15;;;;;;;4;2;;;;;;;19.59;50.15;96758.333333333;;;;
2024/03/27 12:10:15;;;;;;;4;2;;;;;;;20.17;46.43;96751.666666667;;;;
2024/03/27 12:20:15;;;;;;;3.9;1.5;;;;;;;20.5;46.66;96748.333333333;;;;
2024/03/27 12:31:15;;;;;;;3.9;1.5;;;;;;;20.35;45.53;96733.333333333;;;;
2024/03/27 12:42:15;;;;;;;3.9;1.5;;;;;;;20.16;46.62;96735;;;;
2024/03/27 12:53:16;;;;;;;4.1;1.6;;;;;;;20.59;45.31;96728.333333333;;;;
2024/03/27 13:04:16;;;;;;;4.1;1.6;;;;;;;21.14;44.77;96711.666666667;;;;
2024/03/27 13:14:16;;;;;;;4.1;1.6;;;;;;;21.78;46.26;96706.666666667;;;;
2024/03/27 13:25:16;;;;;;;4.9;1.5;;;;;;;21.13;44.24;96698.333333333;;;;
2024/03/27 13:35:16;;;;;;;4.9;1.5;;;;;;;21.12;43.17;96685;;;;
2024/03/27 13:46:15;;;;;;;4.9;1.5;;;;;;;20.88;46.17;96678.333333333;;;;
2024/03/27 13:56:16;;;;;;;3.6;1.5;;;;;;;20.46;46.09;96680;;;;
2024/03/27 14:07:15;;;;;;;3.6;1.5;;;;;;;20.2;47;96678.333333333;;;;
2024/03/27 14:17:16;;;;;;;3.6;1.5;;;;;;;20.24;47.91;96676.666666667;;;;
2024/03/27 14:28:16;;;;;;;4.5;1.5;;;;;;;19.94;48;96683.333333333;;;;
2024/03/27 14:39:15;;;;;;;4.5;1.5;;;;;;;19.5;47.83;96683.333333333;;;;
2024/03/27 14:49:16;;;;;;;5.6;1.9;;;;;;;18.83;49.82;96676.666666667;;;;
2024/03/27 14:59:16;;;;;;;5.6;1.9;;;;;;;19.19;49.6;96666.666666667;;;;
2024/03/27 15:10:15;;;;;;;5.6;1.9;;;;;;;19.15;49.35;96661.666666667;;;;
2024/03/27 15:20:16;;;;;;;4.4;1.6;;;;;;;19.39;47.78;96648.333333333;;;;
2024/03/27 15:30:16;;;;;;;4.4;1.6;;;;;;;19.37;47.38;96660;;;;
2024/03/27 15:41:16;;;;;;;4.4;1.6;;;;;;;20.7;44.91;96670;;;;
2024/03/27 15:52:16;;;;;;;9.7;7.5;;;;;;;20.8;45.35;96673.333333333;;;;
2024/03/27 16:03:16;;;;;;;9.7;7.5;;;;;;;19.7;47.42;96676.666666667;;;;
2024/03/27 16:14:15;;;;;;;9.7;7.5;;;;;;;17.98;50.6;96681.666666667;;;;
2024/03/27 16:25:15;;;;;;;5.9;2.5;;;;;;;16.8;53.2;96665;;;;
2024/03/27 16:35:15;;;;;;;5.9;2.5;;;;;;;15.88;55.32;96650;;;;
2024/03/27 16:45:16;;;;;;;5.9;2.5;;;;;;;15.1;56.56;96643.333333333;;;;
2024/03/27 16:56:16;;;;;;;5.4;2.6;;;;;;;14.54;56.99;96653.333333333;;;;
2024/03/27 17:07:16;;;;;;;5.4;2.6;;;;;;;14.05;58.11;96663.333333333;;;;
2024/03/27 17:18:16;;;;;;;5.4;2.6;;;;;;;13.66;58.87;96686.666666667;;;;
2024/03/27 17:28:16;;;;;;;13.4;9.2;;;;;;;13.39;59.29;96706.666666667;;;;
2024/03/27 17:38:16;;;;;;;13.4;9.2;;;;;;;12.99;60.82;96698.333333333;;;;
2024/03/27 17:49:16;;;;;;;15.6;8.5;;;;;;;12.66;61.86;96701.666666667;;;;
2024/03/27 18:00:16;;;;;;;15.6;8.5;;;;;;;12.45;61.68;96706.666666667;;;;
2024/03/27 18:10:16;;;;;;;15.6;8.5;;;;;;;12.15;62.67;96710;;;;
2024/03/27 18:21:16;;;;;;;13.9;7;;;;;;;11.68;64.95;96700;;;;
2024/03/27 18:31:16;;;;;;;13.9;7;;;;;;;11.38;65.41;96695;;;;
2024/03/27 18:42:16;;;;;;;13.9;7;;;;;;;11.15;66.27;96693.333333333;;;;
2024/03/27 18:53:16;;;;;;;7.8;4.3;;;;;;;10.95;67.54;96683.333333333;;;;
2024/03/27 19:04:16;;;;;;;7.8;4.3;;;;;;;10.68;68.36;96681.666666667;;;;
2024/03/27 19:15:16;;;;;;;7.8;4.3;;;;;;;10.58;68.81;96678.333333333;;;;
2024/03/27 19:25:16;;;;;;;12.5;5.9;;;;;;;10.47;69.71;96665;;;;
2024/03/27 19:36:16;;;;;;;12.5;5.9;;;;;;;10.39;70.24;96646.666666667;;;;
2024/03/27 19:46:16;;;;;;;12.5;5.9;;;;;;;10.2;70.87;96643.333333333;;;;
2024/03/27 19:57:16;;;;;;;11.3;6.1;;;;;;;10.13;71.82;96633.333333333;;;;
2024/03/27 20:07:16;;;;;;;11.3;6.1;;;;;;;10.14;72.08;96625;;;;
2024/03/27 20:17:16;;;;;;;11.3;6.1;;;;;;;10.11;72.22;96635;;;;
2024/03/27 20:28:16;;;;;;;9.2;4.6;;;;;;;9.86;72.1;96646.666666667;;;;
2024/03/27 20:38:16;;;;;;;9.2;4.6;;;;;;;9.53;73.66;96653.333333333;;;;
2024/03/27 20:48:16;;;;;;;9.2;4.6;;;;;;;9.3;74.22;96645;;;;
2024/03/27 20:58:16;;;;;;;6.9;4.6;;;;;;;9.2;75.23;96628.333333333;;;;
2024/03/27 21:08:16;;;;;;;6.9;4.6;;;;;;;9.25;75.55;96613.333333333;;;;
2024/03/27 21:19:16;;;;;;;14.9;6.5;;;;;;;9.15;76.1;96598.333333333;;;;
2024/03/27 21:29:16;;;;;;;14.9;6.5;;;;;;;9.17;76.37;96591.666666667;;;;
2024/03/27 21:40:16;;;;;;;14.9;6.5;;;;;;;9.13;77.4;96600;;;;
2024/03/27 21:50:16;;;;;;;9.5;4.7;;;;;;;9.12;77.51;96593.333333333;;;;
2024/03/27 22:01:16;;;;;;;9.5;4.7;;;;;;;9.07;77.97;96580;;;;
2024/03/27 22:11:16;;;;;;;9.5;4.7;;;;;;;9.13;77.9;96565;;;;
2024/03/27 22:21:16;;;;;;;9;4.9;;;;;;;9.2;78.04;96555;;;;
2024/03/27 22:31:16;;;;;;;9;4.9;;;;;;;9.28;78;96560;;;;
2024/03/27 22:42:16;;;;;;;9;4.9;;;;;;;9.5;77.87;96538.333333333;;;;
2024/03/27 22:52:16;;;;;;;7.7;3.7;;;;;;;9.74;78.07;96515;;;;
2024/03/27 23:03:16;;;;;;;7.7;3.7;;;;;;;10.32;77.18;96518.333333333;;;;
2024/03/27 23:13:16;;;;;;;7.7;3.7;;;;;;;10.65;75.94;96518.333333333;;;;
2024/03/27 23:24:16;;;;;;;7.6;4.3;;;;;;;10.92;75.03;96498.333333333;;;;
2024/03/27 23:34:16;;;;;;;7.6;4.3;;;;;;;11;74.87;96490;;;;
2024/03/27 23:44:16;;;;;;;7.6;4.3;;;;;;;10.7;74.63;96471.666666667;;;;
2024/03/27 23:54:16;;;;;;;6.7;3.1;;;;;;;10.48;75.1;96458.333333333;;;;
